Palmer, Nebraska
Current Conditions -  °F | °C
As of 6:53 AM on Thursday 18 Dec 2014 (Local Time) from KGRI Reporting Station
Overcast Overcast  
Wind Chill: 23°   Ceiling: 4800
Heat Index: 23°   Visibility: 8mi
Dew Point: 21°   Wind: 3mph
Humidity: 92%   Direction: 120°ESE
Pressure: 30.17"   Gusts: NA
Location:  41.22°N, 98.26°W
Report Text: KGRI 181253Z AUTO 12003KT 8SM OVC048 M05/M06 A3017 RMK AO2 SNE27 SLP248 P0000 T10501061
Loading
Personal Weather Stations






























Interactive Weather Map New forecast layout! Learn more

10-Day Weather Forecast

Advertisements
Track Severe Weather on mobile